sensor_id;sensor_type;location;lat;lon;timestamp;P1;durP1;ratioP1;P2;durP2;ratioP2
42244;SDS011;27912;51.828;5.688;2023-03-14T00:01:18;6.85;;;0.80;;
42244;SDS011;27912;51.828;5.688;2023-03-14T00:03:45;7.35;;;0.85;;
42244;SDS011;27912;51.828;5.688;2023-03-14T00:06:11;6.47;;;1.02;;
42244;SDS011;27912;51.828;5.688;2023-03-14T00:08:38;5.18;;;0.80;;
42244;SDS011;27912;51.828;5.688;2023-03-14T00:11:08;4.57;;;0.60;;
42244;SDS011;27912;51.828;5.688;2023-03-14T00:13:35;3.53;;;0.52;;
42244;SDS011;27912;51.828;5.688;2023-03-14T00:16:02;4.03;;;0.60;;
42244;SDS011;27912;51.828;5.688;2023-03-14T00:18:28;4.80;;;0.40;;
42244;SDS011;27912;51.828;5.688;2023-03-14T00:20:57;4.80;;;0.60;;
42244;SDS011;27912;51.828;5.688;2023-03-14T00:23:27;3.42;;;0.43;;
42244;SDS011;27912;51.828;5.688;2023-03-14T00:25:56;6.68;;;0.50;;
42244;SDS011;27912;51.828;5.688;2023-03-14T00:28:27;5.00;;;0.40;;
42244;SDS011;27912;51.828;5.688;2023-03-14T00:30:53;4.43;;;0.40;;
42244;SDS011;27912;51.828;5.688;2023-03-14T00:33:18;2.58;;;0.30;;
42244;SDS011;27912;51.828;5.688;2023-03-14T00:35:51;3.30;;;0.30;;
42244;SDS011;27912;51.828;5.688;2023-03-14T00:38:21;4.47;;;0.38;;
42244;SDS011;27912;51.828;5.688;2023-03-14T00:40:47;4.68;;;0.40;;
42244;SDS011;27912;51.828;5.688;2023-03-14T00:43:13;2.88;;;0.40;;
42244;SDS011;27912;51.828;5.688;2023-03-14T00:45:38;5.30;;;0.50;;
42244;SDS011;27912;51.828;5.688;2023-03-14T00:48:04;4.97;;;0.70;;
42244;SDS011;27912;51.828;5.688;2023-03-14T00:50:29;5.68;;;0.50;;
42244;SDS011;27912;51.828;5.688;2023-03-14T00:52:55;4.20;;;0.40;;
42244;SDS011;27912;51.828;5.688;2023-03-14T00:55:20;6.05;;;0.55;;
42244;SDS011;27912;51.828;5.688;2023-03-14T00:57:46;4.93;;;0.40;;
42244;SDS011;27912;51.828;5.688;2023-03-14T01:00:12;5.55;;;0.60;;
42244;SDS011;27912;51.828;5.688;2023-03-14T01:02:37;8.00;;;0.60;;
42244;SDS011;27912;51.828;5.688;2023-03-14T01:05:03;5.65;;;0.57;;
42244;SDS011;27912;51.828;5.688;2023-03-14T01:07:29;5.93;;;0.60;;
42244;SDS011;27912;51.828;5.688;2023-03-14T01:09:55;3.22;;;0.50;;
42244;SDS011;27912;51.828;5.688;2023-03-14T01:12:20;5.57;;;0.50;;
42244;SDS011;27912;51.828;5.688;2023-03-14T01:14:46;5.85;;;0.88;;
42244;SDS011;27912;51.828;5.688;2023-03-14T01:17:11;5.20;;;0.40;;
42244;SDS011;27912;51.828;5.688;2023-03-14T01:19:37;5.65;;;0.60;;
42244;SDS011;27912;51.828;5.688;2023-03-14T01:22:03;4.35;;;0.40;;
42244;SDS011;27912;51.828;5.688;2023-03-14T01:24:28;6.63;;;0.93;;
42244;SDS011;27912;51.828;5.688;2023-03-14T01:26:54;6.68;;;0.57;;
42244;SDS011;27912;51.828;5.688;2023-03-14T01:29:20;4.32;;;0.40;;
42244;SDS011;27912;51.828;5.688;2023-03-14T01:31:45;4.15;;;0.55;;
42244;SDS011;27912;51.828;5.688;2023-03-14T01:34:11;7.50;;;1.00;;
42244;SDS011;27912;51.828;5.688;2023-03-14T01:36:36;5.82;;;0.40;;
42244;SDS011;27912;51.828;5.688;2023-03-14T01:39:02;5.25;;;0.68;;
42244;SDS011;27912;51.828;5.688;2023-03-14T01:41:28;7.10;;;0.30;;
42244;SDS011;27912;51.828;5.688;2023-03-14T01:43:54;5.90;;;0.60;;
42244;SDS011;27912;51.828;5.688;2023-03-14T01:46:21;6.40;;;0.50;;
42244;SDS011;27912;51.828;5.688;2023-03-14T01:48:52;5.93;;;0.40;;
42244;SDS011;27912;51.828;5.688;2023-03-14T01:54:02;2.45;;;0.30;;
42244;SDS011;27912;51.828;5.688;2023-03-14T01:56:32;5.10;;;0.50;;
42244;SDS011;27912;51.828;5.688;2023-03-14T01:58:58;7.75;;;0.40;;
42244;SDS011;27912;51.828;5.688;2023-03-14T02:01:25;8.20;;;0.40;;
42244;SDS011;27912;51.828;5.688;2023-03-14T02:03:56;5.32;;;0.50;;
42244;SDS011;27912;51.828;5.688;2023-03-14T02:06:26;8.43;;;0.50;;
42244;SDS011;27912;51.828;5.688;2023-03-14T02:08:59;6.07;;;0.40;;
42244;SDS011;27912;51.828;5.688;2023-03-14T02:11:26;6.22;;;0.40;;
42244;SDS011;27912;51.828;5.688;2023-03-14T02:13:55;6.90;;;0.40;;
42244;SDS011;27912;51.828;5.688;2023-03-14T02:16:22;9.38;;;0.77;;
42244;SDS011;27912;51.828;5.688;2023-03-14T02:18:48;8.20;;;0.40;;
42244;SDS011;27912;51.828;5.688;2023-03-14T02:29:57;4.90;;;0.40;;
42244;SDS011;27912;51.828;5.688;2023-03-14T02:32:30;10.75;;;0.70;;
42244;SDS011;27912;51.828;5.688;2023-03-14T02:34:59;3.75;;;0.55;;
42244;SDS011;27912;51.828;5.688;2023-03-14T02:37:45;5.07;;;0.73;;
42244;SDS011;27912;51.828;5.688;2023-03-14T02:40:14;6.90;;;0.40;;
42244;SDS011;27912;51.828;5.688;2023-03-14T02:42:40;3.60;;;0.50;;
42244;SDS011;27912;51.828;5.688;2023-03-14T02:47:34;6.68;;;0.50;;
42244;SDS011;27912;51.828;5.688;2023-03-14T02:50:17;7.85;;;0.50;;
42244;SDS011;27912;51.828;5.688;2023-03-14T02:52:47;3.28;;;0.40;;
42244;SDS011;27912;51.828;5.688;2023-03-14T02:55:12;7.90;;;0.60;;
42244;SDS011;27912;51.828;5.688;2023-03-14T02:57:38;3.67;;;0.60;;
42244;SDS011;27912;51.828;5.688;2023-03-14T03:00:04;6.43;;;0.85;;
42244;SDS011;27912;51.828;5.688;2023-03-14T03:02:30;5.82;;;0.45;;
42244;SDS011;27912;51.828;5.688;2023-03-14T03:04:56;7.45;;;0.63;;
42244;SDS011;27912;51.828;5.688;2023-03-14T03:07:22;6.07;;;0.50;;
42244;SDS011;27912;51.828;5.688;2023-03-14T03:09:48;3.80;;;0.68;;
42244;SDS011;27912;51.828;5.688;2023-03-14T03:12:14;5.00;;;0.60;;
42244;SDS011;27912;51.828;5.688;2023-03-14T03:14:39;7.43;;;0.90;;
42244;SDS011;27912;51.828;5.688;2023-03-14T03:17:05;7.93;;;0.98;;
42244;SDS011;27912;51.828;5.688;2023-03-14T03:19:31;7.18;;;0.82;;
42244;SDS011;27912;51.828;5.688;2023-03-14T03:21:57;9.27;;;1.48;;
42244;SDS011;27912;51.828;5.688;2023-03-14T03:24:24;6.97;;;1.45;;
42244;SDS011;27912;51.828;5.688;2023-03-14T03:26:50;8.27;;;0.65;;
42244;SDS011;27912;51.828;5.688;2023-03-14T03:29:16;8.70;;;0.77;;
42244;SDS011;27912;51.828;5.688;2023-03-14T03:31:42;6.60;;;0.65;;
42244;SDS011;27912;51.828;5.688;2023-03-14T03:34:07;6.90;;;0.88;;
42244;SDS011;27912;51.828;5.688;2023-03-14T03:36:33;7.40;;;1.10;;
42244;SDS011;27912;51.828;5.688;2023-03-14T03:38:58;8.27;;;0.80;;
42244;SDS011;27912;51.828;5.688;2023-03-14T03:41:24;9.05;;;0.77;;
42244;SDS011;27912;51.828;5.688;2023-03-14T03:43:50;7.07;;;0.70;;
42244;SDS011;27912;51.828;5.688;2023-03-14T03:46:15;9.02;;;1.30;;
42244;SDS011;27912;51.828;5.688;2023-03-14T03:48:41;6.47;;;0.50;;
42244;SDS011;27912;51.828;5.688;2023-03-14T03:51:07;7.68;;;0.70;;
42244;SDS011;27912;51.828;5.688;2023-03-14T03:53:35;14.25;;;1.05;;
42244;SDS011;27912;51.828;5.688;2023-03-14T03:56:01;6.38;;;0.68;;
42244;SDS011;27912;51.828;5.688;2023-03-14T03:58:26;12.13;;;0.90;;
42244;SDS011;27912;51.828;5.688;2023-03-14T04:00:52;6.25;;;0.50;;
42244;SDS011;27912;51.828;5.688;2023-03-14T04:03:18;12.40;;;0.80;;
42244;SDS011;27912;51.828;5.688;2023-03-14T04:05:44;8.13;;;0.68;;
42244;SDS011;27912;51.828;5.688;2023-03-14T04:08:10;8.77;;;0.50;;
42244;SDS011;27912;51.828;5.688;2023-03-14T04:10:35;10.00;;;0.85;;
42244;SDS011;27912;51.828;5.688;2023-03-14T04:13:01;5.60;;;0.63;;
42244;SDS011;27912;51.828;5.688;2023-03-14T04:15:27;8.15;;;0.88;;
42244;SDS011;27912;51.828;5.688;2023-03-14T04:17:56;9.02;;;0.85;;
42244;SDS011;27912;51.828;5.688;2023-03-14T04:20:22;7.28;;;0.50;;
42244;SDS011;27912;51.828;5.688;2023-03-14T04:22:48;7.72;;;0.60;;
42244;SDS011;27912;51.828;5.688;2023-03-14T04:25:13;5.82;;;1.02;;
42244;SDS011;27912;51.828;5.688;2023-03-14T04:27:42;6.55;;;0.43;;
42244;SDS011;27912;51.828;5.688;2023-03-14T04:30:07;7.63;;;0.60;;
42244;SDS011;27912;51.828;5.688;2023-03-14T04:32:33;9.55;;;0.68;;
42244;SDS011;27912;51.828;5.688;2023-03-14T04:34:59;8.98;;;0.70;;
42244;SDS011;27912;51.828;5.688;2023-03-14T04:37:24;8.57;;;0.80;;
42244;SDS011;27912;51.828;5.688;2023-03-14T04:39:50;3.88;;;0.40;;
42244;SDS011;27912;51.828;5.688;2023-03-14T04:42:15;4.13;;;0.73;;
42244;SDS011;27912;51.828;5.688;2023-03-14T04:44:41;6.60;;;0.60;;
42244;SDS011;27912;51.828;5.688;2023-03-14T04:47:08;8.40;;;0.50;;
42244;SDS011;27912;51.828;5.688;2023-03-14T04:49:33;5.88;;;0.40;;
42244;SDS011;27912;51.828;5.688;2023-03-14T04:51:59;8.73;;;0.63;;
42244;SDS011;27912;51.828;5.688;2023-03-14T04:54:25;8.23;;;0.50;;
42244;SDS011;27912;51.828;5.688;2023-03-14T04:56:50;5.30;;;0.77;;
42244;SDS011;27912;51.828;5.688;2023-03-14T04:59:16;4.03;;;0.30;;
42244;SDS011;27912;51.828;5.688;2023-03-14T05:01:42;6.18;;;0.40;;
42244;SDS011;27912;51.828;5.688;2023-03-14T05:04:07;6.95;;;0.93;;
42244;SDS011;27912;51.828;5.688;2023-03-14T05:06:33;5.18;;;0.38;;
42244;SDS011;27912;51.828;5.688;2023-03-14T05:08:59;3.70;;;0.30;;
42244;SDS011;27912;51.828;5.688;2023-03-14T05:11:25;3.40;;;0.30;;
42244;SDS011;27912;51.828;5.688;2023-03-14T05:13:51;6.35;;;0.30;;
42244;SDS011;27912;51.828;5.688;2023-03-14T05:16:16;4.63;;;0.30;;
42244;SDS011;27912;51.828;5.688;2023-03-14T05:18:42;2.78;;;0.30;;
42244;SDS011;27912;51.828;5.688;2023-03-14T05:21:07;4.85;;;0.50;;
42244;SDS011;27912;51.828;5.688;2023-03-14T05:23:33;7.50;;;0.65;;
42244;SDS011;27912;51.828;5.688;2023-03-14T05:25:58;9.52;;;0.57;;
42244;SDS011;27912;51.828;5.688;2023-03-14T05:28:24;4.53;;;0.40;;
42244;SDS011;27912;51.828;5.688;2023-03-14T05:30:50;5.97;;;0.40;;
42244;SDS011;27912;51.828;5.688;2023-03-14T05:33:15;5.15;;;0.50;;
42244;SDS011;27912;51.828;5.688;2023-03-14T05:35:41;4.80;;;0.50;;
42244;SDS011;27912;51.828;5.688;2023-03-14T05:38:08;4.63;;;0.45;;
42244;SDS011;27912;51.828;5.688;2023-03-14T05:40:33;5.65;;;0.80;;
42244;SDS011;27912;51.828;5.688;2023-03-14T05:42:59;5.20;;;0.77;;
42244;SDS011;27912;51.828;5.688;2023-03-14T05:45:25;5.00;;;0.43;;
42244;SDS011;27912;51.828;5.688;2023-03-14T05:47:50;5.82;;;0.50;;
42244;SDS011;27912;51.828;5.688;2023-03-14T05:50:16;4.05;;;0.43;;
42244;SDS011;27912;51.828;5.688;2023-03-14T05:52:42;4.05;;;0.73;;
42244;SDS011;27912;51.828;5.688;2023-03-14T05:55:07;3.53;;;0.52;;
42244;SDS011;27912;51.828;5.688;2023-03-14T05:57:33;3.83;;;0.43;;
42244;SDS011;27912;51.828;5.688;2023-03-14T05:59:59;3.08;;;0.40;;
42244;SDS011;27912;51.828;5.688;2023-03-14T06:02:24;2.72;;;0.50;;
42244;SDS011;27912;51.828;5.688;2023-03-14T06:04:50;5.55;;;0.80;;
42244;SDS011;27912;51.828;5.688;2023-03-14T06:07:16;2.97;;;0.50;;
42244;SDS011;27912;51.828;5.688;2023-03-14T06:09:41;3.50;;;0.60;;
42244;SDS011;27912;51.828;5.688;2023-03-14T06:12:07;3.17;;;0.50;;
42244;SDS011;27912;51.828;5.688;2023-03-14T06:14:33;3.75;;;0.52;;
42244;SDS011;27912;51.828;5.688;2023-03-14T06:16:58;4.25;;;0.77;;
42244;SDS011;27912;51.828;5.688;2023-03-14T06:19:24;4.03;;;0.93;;
42244;SDS011;27912;51.828;5.688;2023-03-14T06:21:50;2.40;;;0.50;;
42244;SDS011;27912;51.828;5.688;2023-03-14T06:24:16;2.72;;;0.65;;
42244;SDS011;27912;51.828;5.688;2023-03-14T06:26:42;4.93;;;0.70;;
42244;SDS011;27912;51.828;5.688;2023-03-14T06:29:08;4.03;;;0.80;;
42244;SDS011;27912;51.828;5.688;2023-03-14T06:31:33;4.53;;;1.10;;
42244;SDS011;27912;51.828;5.688;2023-03-14T06:34:00;4.95;;;0.80;;
42244;SDS011;27912;51.828;5.688;2023-03-14T06:36:25;2.20;;;0.80;;
42244;SDS011;27912;51.828;5.688;2023-03-14T06:38:51;6.45;;;1.10;;
42244;SDS011;27912;51.828;5.688;2023-03-14T06:41:17;3.67;;;0.98;;
42244;SDS011;27912;51.828;5.688;2023-03-14T06:43:43;2.90;;;0.90;;
42244;SDS011;27912;51.828;5.688;2023-03-14T06:46:08;4.45;;;1.00;;
42244;SDS011;27912;51.828;5.688;2023-03-14T06:48:34;3.17;;;1.00;;
42244;SDS011;27912;51.828;5.688;2023-03-14T06:50:59;6.28;;;1.05;;
42244;SDS011;27912;51.828;5.688;2023-03-14T06:53:25;3.95;;;1.58;;
42244;SDS011;27912;51.828;5.688;2023-03-14T06:55:51;6.78;;;1.52;;
42244;SDS011;27912;51.828;5.688;2023-03-14T06:58:16;5.40;;;1.83;;
42244;SDS011;27912;51.828;5.688;2023-03-14T07:00:42;4.78;;;1.30;;
42244;SDS011;27912;51.828;5.688;2023-03-14T07:03:08;5.25;;;1.55;;
42244;SDS011;27912;51.828;5.688;2023-03-14T07:05:35;4.25;;;1.40;;
42244;SDS011;27912;51.828;5.688;2023-03-14T07:08:00;5.07;;;1.50;;
42244;SDS011;27912;51.828;5.688;2023-03-14T07:10:26;5.35;;;1.50;;
42244;SDS011;27912;51.828;5.688;2023-03-14T07:12:52;4.53;;;1.55;;
42244;SDS011;27912;51.828;5.688;2023-03-14T07:15:18;3.33;;;1.65;;
42244;SDS011;27912;51.828;5.688;2023-03-14T07:17:44;5.15;;;1.63;;
42244;SDS011;27912;51.828;5.688;2023-03-14T07:20:10;3.20;;;1.30;;
42244;SDS011;27912;51.828;5.688;2023-03-14T07:22:36;2.97;;;0.60;;
42244;SDS011;27912;51.828;5.688;2023-03-14T07:25:02;4.18;;;0.50;;
42244;SDS011;27912;51.828;5.688;2023-03-14T07:27:27;1.95;;;0.40;;
42244;SDS011;27912;51.828;5.688;2023-03-14T07:29:53;1.55;;;0.40;;
42244;SDS011;27912;51.828;5.688;2023-03-14T07:32:18;1.00;;;0.10;;
42244;SDS011;27912;51.828;5.688;2023-03-14T07:34:44;3.75;;;0.20;;
42244;SDS011;27912;51.828;5.688;2023-03-14T07:37:09;2.13;;;0.20;;
42244;SDS011;27912;51.828;5.688;2023-03-14T07:39:35;3.13;;;0.22;;
42244;SDS011;27912;51.828;5.688;2023-03-14T07:42:01;5.47;;;0.25;;
42244;SDS011;27912;51.828;5.688;2023-03-14T07:44:26;1.10;;;0.10;;
42244;SDS011;27912;51.828;5.688;2023-03-14T07:46:52;0.77;;;0.20;;
42244;SDS011;27912;51.828;5.688;2023-03-14T07:49:18;1.13;;;0.17;;
42244;SDS011;27912;51.828;5.688;2023-03-14T07:51:44;1.08;;;0.20;;
42244;SDS011;27912;51.828;5.688;2023-03-14T07:54:12;1.77;;;0.20;;
42244;SDS011;27912;51.828;5.688;2023-03-14T07:56:37;3.10;;;0.40;;
42244;SDS011;27912;51.828;5.688;2023-03-14T07:59:03;3.63;;;0.28;;
42244;SDS011;27912;51.828;5.688;2023-03-14T08:01:28;2.40;;;0.28;;
42244;SDS011;27912;51.828;5.688;2023-03-14T08:03:54;2.90;;;0.85;;
42244;SDS011;27912;51.828;5.688;2023-03-14T08:06:20;3.78;;;0.60;;
42244;SDS011;27912;51.828;5.688;2023-03-14T08:08:45;4.55;;;1.30;;
42244;SDS011;27912;51.828;5.688;2023-03-14T08:11:11;4.85;;;1.35;;
42244;SDS011;27912;51.828;5.688;2023-03-14T08:13:37;4.50;;;1.17;;
42244;SDS011;27912;51.828;5.688;2023-03-14T08:16:03;3.72;;;1.23;;
42244;SDS011;27912;51.828;5.688;2023-03-14T08:18:29;3.00;;;1.48;;
42244;SDS011;27912;51.828;5.688;2023-03-14T08:20:54;2.92;;;1.58;;
42244;SDS011;27912;51.828;5.688;2023-03-14T08:23:20;4.90;;;2.05;;
42244;SDS011;27912;51.828;5.688;2023-03-14T08:25:48;8.10;;;2.15;;
42244;SDS011;27912;51.828;5.688;2023-03-14T08:28:14;6.20;;;1.80;;
42244;SDS011;27912;51.828;5.688;2023-03-14T08:30:40;4.95;;;1.95;;
42244;SDS011;27912;51.828;5.688;2023-03-14T08:33:06;6.68;;;2.17;;
42244;SDS011;27912;51.828;5.688;2023-03-14T08:35:31;3.75;;;1.40;;
42244;SDS011;27912;51.828;5.688;2023-03-14T08:37:57;6.20;;;1.80;;
42244;SDS011;27912;51.828;5.688;2023-03-14T08:40:22;4.95;;;1.30;;
42244;SDS011;27912;51.828;5.688;2023-03-14T08:42:48;5.07;;;1.00;;
42244;SDS011;27912;51.828;5.688;2023-03-14T08:45:14;3.78;;;0.90;;
42244;SDS011;27912;51.828;5.688;2023-03-14T08:47:44;2.53;;;0.50;;
42244;SDS011;27912;51.828;5.688;2023-03-14T08:50:10;2.67;;;0.40;;
42244;SDS011;27912;51.828;5.688;2023-03-14T08:52:36;2.08;;;0.40;;
42244;SDS011;27912;51.828;5.688;2023-03-14T08:55:06;2.92;;;0.68;;
42244;SDS011;27912;51.828;5.688;2023-03-14T08:57:35;4.35;;;1.10;;
42244;SDS011;27912;51.828;5.688;2023-03-14T09:00:01;5.05;;;0.50;;
42244;SDS011;27912;51.828;5.688;2023-03-14T09:02:30;6.30;;;0.40;;
42244;SDS011;27912;51.828;5.688;2023-03-14T09:04:56;4.18;;;0.50;;
42244;SDS011;27912;51.828;5.688;2023-03-14T09:07:21;4.38;;;0.30;;
42244;SDS011;27912;51.828;5.688;2023-03-14T09:09:47;4.32;;;0.30;;
42244;SDS011;27912;51.828;5.688;2023-03-14T09:12:13;3.47;;;0.32;;
42244;SDS011;27912;51.828;5.688;2023-03-14T09:14:38;6.05;;;0.82;;
42244;SDS011;27912;51.828;5.688;2023-03-14T09:17:04;6.43;;;0.43;;
42244;SDS011;27912;51.828;5.688;2023-03-14T09:19:30;4.45;;;0.30;;
42244;SDS011;27912;51.828;5.688;2023-03-14T09:21:55;1.33;;;0.20;;
42244;SDS011;27912;51.828;5.688;2023-03-14T09:24:21;2.47;;;0.20;;
42244;SDS011;27912;51.828;5.688;2023-03-14T09:26:46;4.65;;;0.15;;
42244;SDS011;27912;51.828;5.688;2023-03-14T09:29:12;7.68;;;0.30;;
42244;SDS011;27912;51.828;5.688;2023-03-14T09:31:38;3.30;;;0.20;;
42244;SDS011;27912;51.828;5.688;2023-03-14T09:34:03;2.00;;;0.20;;
42244;SDS011;27912;51.828;5.688;2023-03-14T09:36:29;2.75;;;0.68;;
42244;SDS011;27912;51.828;5.688;2023-03-14T09:38:55;4.13;;;0.20;;
42244;SDS011;27912;51.828;5.688;2023-03-14T09:41:22;2.83;;;0.20;;
42244;SDS011;27912;51.828;5.688;2023-03-14T09:46:32;3.17;;;0.20;;
42244;SDS011;27912;51.828;5.688;2023-03-14T09:49:00;5.78;;;0.40;;
42244;SDS011;27912;51.828;5.688;2023-03-14T09:51:26;5.05;;;0.30;;
42244;SDS011;27912;51.828;5.688;2023-03-14T09:53:52;4.90;;;0.52;;
42244;SDS011;27912;51.828;5.688;2023-03-14T09:56:19;4.75;;;0.20;;
42244;SDS011;27912;51.828;5.688;2023-03-14T09:58:49;3.97;;;0.20;;
42244;SDS011;27912;51.828;5.688;2023-03-14T10:01:22;5.90;;;0.20;;
42244;SDS011;27912;51.828;5.688;2023-03-14T10:03:50;5.63;;;0.35;;
42244;SDS011;27912;51.828;5.688;2023-03-14T10:06:25;6.47;;;0.50;;
42244;SDS011;27912;51.828;5.688;2023-03-14T10:08:53;4.07;;;0.43;;
42244;SDS011;27912;51.828;5.688;2023-03-14T10:11:20;8.30;;;0.50;;
42244;SDS011;27912;51.828;5.688;2023-03-14T10:13:49;9.70;;;0.43;;
42244;SDS011;27912;51.828;5.688;2023-03-14T10:16:40;6.82;;;0.40;;
42244;SDS011;27912;51.828;5.688;2023-03-14T10:19:12;15.75;;;0.75;;
42244;SDS011;27912;51.828;5.688;2023-03-14T10:21:44;9.63;;;0.70;;
42244;SDS011;27912;51.828;5.688;2023-03-14T10:24:22;9.52;;;1.48;;
42244;SDS011;27912;51.828;5.688;2023-03-14T10:29:28;7.32;;;0.80;;
42244;SDS011;27912;51.828;5.688;2023-03-14T10:34:31;11.18;;;0.80;;
42244;SDS011;27912;51.828;5.688;2023-03-14T10:37:05;14.48;;;0.73;;
42244;SDS011;27912;51.828;5.688;2023-03-14T10:39:58;14.15;;;0.70;;
42244;SDS011;27912;51.828;5.688;2023-03-14T10:42:31;14.13;;;0.90;;
42244;SDS011;27912;51.828;5.688;2023-03-14T10:45:22;17.67;;;1.25;;
42244;SDS011;27912;51.828;5.688;2023-03-14T10:47:58;10.35;;;0.75;;
42244;SDS011;27912;51.828;5.688;2023-03-14T10:50:30;17.10;;;1.52;;
42244;SDS011;27912;51.828;5.688;2023-03-14T10:52:56;11.05;;;1.60;;
42244;SDS011;27912;51.828;5.688;2023-03-14T10:55:39;16.40;;;0.88;;
42244;SDS011;27912;51.828;5.688;2023-03-14T10:58:23;15.73;;;0.80;;
42244;SDS011;27912;51.828;5.688;2023-03-14T11:00:57;13.98;;;1.15;;
42244;SDS011;27912;51.828;5.688;2023-03-14T11:03:49;17.33;;;1.45;;
42244;SDS011;27912;51.828;5.688;2023-03-14T11:06:35;13.17;;;1.07;;
42244;SDS011;27912;51.828;5.688;2023-03-14T11:11:51;16.17;;;1.40;;
42244;SDS011;27912;51.828;5.688;2023-03-14T11:16:56;14.73;;;0.88;;
42244;SDS011;27912;51.828;5.688;2023-03-14T11:19:43;20.42;;;1.30;;
42244;SDS011;27912;51.828;5.688;2023-03-14T11:25:58;15.25;;;1.02;;
42244;SDS011;27912;51.828;5.688;2023-03-14T11:28:26;21.50;;;2.30;;
42244;SDS011;27912;51.828;5.688;2023-03-14T11:31:00;17.25;;;1.25;;
42244;SDS011;27912;51.828;5.688;2023-03-14T11:36:27;12.45;;;1.25;;
42244;SDS011;27912;51.828;5.688;2023-03-14T11:39:11;14.32;;;1.00;;
42244;SDS011;27912;51.828;5.688;2023-03-14T11:41:40;14.93;;;1.33;;
42244;SDS011;27912;51.828;5.688;2023-03-14T11:46:46;14.93;;;0.88;;
42244;SDS011;27912;51.828;5.688;2023-03-14T11:49:31;16.60;;;2.13;;
42244;SDS011;27912;51.828;5.688;2023-03-14T11:52:10;24.13;;;2.13;;
42244;SDS011;27912;51.828;5.688;2023-03-14T11:57:37;21.88;;;1.52;;
42244;SDS011;27912;51.828;5.688;2023-03-14T12:00:21;15.68;;;2.05;;
42244;SDS011;27912;51.828;5.688;2023-03-14T12:05:46;18.90;;;1.70;;
42244;SDS011;27912;51.828;5.688;2023-03-14T12:09:00;14.73;;;1.10;;
42244;SDS011;27912;51.828;5.688;2023-03-14T12:11:32;11.85;;;1.35;;
42244;SDS011;27912;51.828;5.688;2023-03-14T12:14:25;16.55;;;1.67;;
42244;SDS011;27912;51.828;5.688;2023-03-14T12:16:54;13.30;;;1.10;;
42244;SDS011;27912;51.828;5.688;2023-03-14T12:21:49;16.98;;;1.13;;
42244;SDS011;27912;51.828;5.688;2023-03-14T12:24:19;7.88;;;1.15;;
42244;SDS011;27912;51.828;5.688;2023-03-14T12:26:55;9.55;;;0.60;;
42244;SDS011;27912;51.828;5.688;2023-03-14T12:29:22;8.40;;;0.90;;
42244;SDS011;27912;51.828;5.688;2023-03-14T12:31:49;10.82;;;1.02;;
42244;SDS011;27912;51.828;5.688;2023-03-14T12:34:38;11.93;;;0.90;;
42244;SDS011;27912;51.828;5.688;2023-03-14T12:37:10;9.00;;;0.85;;
42244;SDS011;27912;51.828;5.688;2023-03-14T12:42:37;11.35;;;1.00;;
42244;SDS011;27912;51.828;5.688;2023-03-14T12:45:15;15.35;;;1.17;;
42244;SDS011;27912;51.828;5.688;2023-03-14T12:47:51;12.07;;;0.93;;
42244;SDS011;27912;51.828;5.688;2023-03-14T12:50:25;13.38;;;1.35;;
42244;SDS011;27912;51.828;5.688;2023-03-14T12:53:15;5.63;;;0.63;;
42244;SDS011;27912;51.828;5.688;2023-03-14T13:07:12;9.77;;;0.70;;
42244;SDS011;27912;51.828;5.688;2023-03-14T13:09:55;12.57;;;0.80;;
42244;SDS011;27912;51.828;5.688;2023-03-14T13:15:13;8.77;;;0.60;;
42244;SDS011;27912;51.828;5.688;2023-03-14T13:17:46;7.40;;;0.50;;
42244;SDS011;27912;51.828;5.688;2023-03-14T13:20:22;4.97;;;0.40;;
42244;SDS011;27912;51.828;5.688;2023-03-14T13:22:54;5.30;;;0.60;;
42244;SDS011;27912;51.828;5.688;2023-03-14T13:25:19;8.80;;;0.40;;
42244;SDS011;27912;51.828;5.688;2023-03-14T13:27:47;6.28;;;0.50;;
42244;SDS011;27912;51.828;5.688;2023-03-14T13:32:42;6.75;;;0.50;;
42244;SDS011;27912;51.828;5.688;2023-03-14T13:35:29;6.97;;;0.50;;
42244;SDS011;27912;51.828;5.688;2023-03-14T13:40:29;10.10;;;0.75;;
42244;SDS011;27912;51.828;5.688;2023-03-14T13:43:44;3.58;;;0.80;;
42244;SDS011;27912;51.828;5.688;2023-03-14T13:45:55;5.40;;;0.35;;
42244;SDS011;27912;51.828;5.688;2023-03-14T13:48:28;4.45;;;0.32;;
42244;SDS011;27912;51.828;5.688;2023-03-14T13:50:56;2.97;;;0.50;;
42244;SDS011;27912;51.828;5.688;2023-03-14T13:53:25;3.90;;;0.35;;
42244;SDS011;27912;51.828;5.688;2023-03-14T13:55:51;4.22;;;0.40;;
42244;SDS011;27912;51.828;5.688;2023-03-14T13:58:25;5.13;;;0.40;;
42244;SDS011;27912;51.828;5.688;2023-03-14T14:00:57;6.65;;;0.47;;
42244;SDS011;27912;51.828;5.688;2023-03-14T14:03:23;7.35;;;0.50;;
42244;SDS011;27912;51.828;5.688;2023-03-14T14:05:49;5.07;;;0.40;;
42244;SDS011;27912;51.828;5.688;2023-03-14T14:08:15;2.80;;;0.30;;
42244;SDS011;27912;51.828;5.688;2023-03-14T14:10:40;5.55;;;0.50;;
42244;SDS011;27912;51.828;5.688;2023-03-14T14:13:08;4.28;;;0.40;;
42244;SDS011;27912;51.828;5.688;2023-03-14T14:15:40;7.25;;;0.40;;
42244;SDS011;27912;51.828;5.688;2023-03-14T14:18:12;4.78;;;0.30;;
42244;SDS011;27912;51.828;5.688;2023-03-14T14:20:42;4.32;;;0.38;;
42244;SDS011;27912;51.828;5.688;2023-03-14T14:23:11;4.38;;;0.40;;
42244;SDS011;27912;51.828;5.688;2023-03-14T14:25:38;6.07;;;0.30;;
42244;SDS011;27912;51.828;5.688;2023-03-14T14:33:57;4.85;;;0.30;;
42244;SDS011;27912;51.828;5.688;2023-03-14T14:36:37;4.10;;;0.45;;
42244;SDS011;27912;51.828;5.688;2023-03-14T14:39:06;6.47;;;0.40;;
42244;SDS011;27912;51.828;5.688;2023-03-14T14:41:47;7.18;;;0.40;;
42244;SDS011;27912;51.828;5.688;2023-03-14T14:44:16;5.50;;;0.40;;
42244;SDS011;27912;51.828;5.688;2023-03-14T14:46:45;4.13;;;0.50;;
42244;SDS011;27912;51.828;5.688;2023-03-14T14:49:17;5.10;;;0.45;;
42244;SDS011;27912;51.828;5.688;2023-03-14T14:51:47;5.75;;;0.30;;
42244;SDS011;27912;51.828;5.688;2023-03-14T14:54:18;5.55;;;0.50;;
42244;SDS011;27912;51.828;5.688;2023-03-14T14:57:01;7.55;;;0.47;;
42244;SDS011;27912;51.828;5.688;2023-03-14T14:59:28;6.28;;;0.50;;
42244;SDS011;27912;51.828;5.688;2023-03-14T15:02:01;5.50;;;0.40;;
42244;SDS011;27912;51.828;5.688;2023-03-14T15:04:30;4.50;;;0.50;;
42244;SDS011;27912;51.828;5.688;2023-03-14T15:06:56;7.10;;;1.55;;
42244;SDS011;27912;51.828;5.688;2023-03-14T15:09:22;6.85;;;0.40;;
42244;SDS011;27912;51.828;5.688;2023-03-14T15:11:51;5.43;;;0.40;;
42244;SDS011;27912;51.828;5.688;2023-03-14T15:14:16;6.60;;;0.35;;
42244;SDS011;27912;51.828;5.688;2023-03-14T15:16:42;8.93;;;0.50;;
42244;SDS011;27912;51.828;5.688;2023-03-14T15:19:20;7.60;;;0.40;;
42244;SDS011;27912;51.828;5.688;2023-03-14T15:21:48;10.10;;;0.60;;
42244;SDS011;27912;51.828;5.688;2023-03-14T15:24:13;6.53;;;0.40;;
42244;SDS011;27912;51.828;5.688;2023-03-14T15:26:39;5.13;;;1.02;;
42244;SDS011;27912;51.828;5.688;2023-03-14T15:29:05;2.35;;;0.20;;
42244;SDS011;27912;51.828;5.688;2023-03-14T15:31:33;5.80;;;0.50;;
42244;SDS011;27912;51.828;5.688;2023-03-14T15:34:00;6.15;;;0.40;;
42244;SDS011;27912;51.828;5.688;2023-03-14T15:36:27;9.05;;;0.75;;
42244;SDS011;27912;51.828;5.688;2023-03-14T15:38:54;9.82;;;0.45;;
42244;SDS011;27912;51.828;5.688;2023-03-14T15:41:20;6.30;;;0.63;;
42244;SDS011;27912;51.828;5.688;2023-03-14T15:43:47;2.90;;;0.38;;
42244;SDS011;27912;51.828;5.688;2023-03-14T15:46:13;5.55;;;0.57;;
42244;SDS011;27912;51.828;5.688;2023-03-14T15:48:40;4.45;;;0.25;;
42244;SDS011;27912;51.828;5.688;2023-03-14T15:51:06;3.67;;;0.28;;
42244;SDS011;27912;51.828;5.688;2023-03-14T15:53:32;18.15;;;1.00;;
42244;SDS011;27912;51.828;5.688;2023-03-14T15:55:58;4.40;;;0.40;;
42244;SDS011;27912;51.828;5.688;2023-03-14T15:58:24;4.43;;;0.30;;
42244;SDS011;27912;51.828;5.688;2023-03-14T16:00:49;5.25;;;0.43;;
42244;SDS011;27912;51.828;5.688;2023-03-14T16:03:15;6.07;;;0.40;;
42244;SDS011;27912;51.828;5.688;2023-03-14T16:05:41;6.03;;;0.65;;